Time;durP1;ratioP1;P1;durP2;ratioP2;P2;SDS_P1;SDS_P2;PMS_P1;PMS_P2;Temp;Humidity;BMP_temperature;BMP_pressure;BME280_temperature;BME280_humidity;BME280_pressure;Samples;Min_cycle;Max_cycle;Signal;HPM_P1;HPM_P2
2021/12/22 19:06:17;;;;;;;24.15;13.98;;;0.00;99.90;;;;;;5065985;27;20440;-64
2021/12/22 19:08:43;;;;;;;24.73;14.10;;;-0.20;99.90;;;;;;5065190;28;20463;-65
2021/12/22 19:11:09;;;;;;;23.52;13.82;;;-0.20;99.90;;;;;;5059327;28;20041;-65
2021/12/22 19:13:35;;;;;;;22.40;13.15;;;-0.20;99.90;;;;;;5059722;28;20069;-65
2021/12/22 19:16:01;;;;;;;24.20;13.93;;;-0.10;99.90;;;;;;5058203;28;20047;-63
2021/12/22 19:18:27;;;;;;;25.00;13.25;;;-0.20;99.90;;;;;;5056934;28;20438;-65
2021/12/22 19:20:53;;;;;;;23.27;13.15;;;-0.10;99.90;;;;;;5056466;28;20049;-64
2021/12/22 19:23:19;;;;;;;22.77;13.68;;;-0.10;99.90;;;;;;5059060;28;20048;-64
2021/12/22 19:25:46;;;;;;;23.00;14.32;;;-0.10;99.90;;;;;;5058508;28;20135;-64
2021/12/22 19:28:12;;;;;;;20.65;12.93;;;-0.10;99.90;;;;;;5060145;28;20812;-64
2021/12/22 19:30:39;;;;;;;24.08;13.63;;;-0.10;99.90;;;;;;5059615;28;20056;-65
2021/12/22 19:33:08;;;;;;;21.08;13.32;;;-0.10;99.90;;;;;;5056592;28;20658;-64
2021/12/22 19:35:36;;;;;;;22.77;12.52;;;-0.10;99.90;;;;;;5056877;28;20480;-65
2021/12/22 19:38:03;;;;;;;19.67;12.32;;;-0.10;99.90;;;;;;5065917;28;20079;-65
2021/12/22 19:40:29;;;;;;;23.35;14.10;;;-0.10;99.90;;;;;;5060322;28;20143;-66
2021/12/22 19:42:55;;;;;;;20.60;12.68;;;0.00;99.90;;;;;;5059725;28;20116;-65
2021/12/22 19:45:21;;;;;;;21.52;12.60;;;0.00;99.90;;;;;;5055181;28;20476;-65
2021/12/22 19:47:48;;;;;;;18.60;12.00;;;0.00;99.90;;;;;;5059392;28;20032;-66
2021/12/22 19:50:16;;;;;;;21.88;12.32;;;0.00;99.90;;;;;;5057823;28;20079;-66
2021/12/22 19:52:43;;;;;;;20.98;12.82;;;0.00;99.90;;;;;;5057294;28;20045;-66
2021/12/22 19:55:10;;;;;;;20.52;12.70;;;0.00;99.90;;;;;;5058597;28;20080;-65
2021/12/22 19:57:37;;;;;;;19.38;11.95;;;0.00;99.90;;;;;;5060623;28;20186;-65
2021/12/22 20:00:09;;;;;;;19.45;11.55;;;0.00;99.90;;;;;;5059104;28;20516;-65
2021/12/22 20:02:35;;;;;;;18.52;12.23;;;0.00;99.90;;;;;;5060533;28;20040;-65
2021/12/22 20:05:00;;;;;;;19.63;11.85;;;0.00;99.90;;;;;;5058518;28;20581;-65
2021/12/22 20:07:26;;;;;;;19.88;11.45;;;0.10;99.90;;;;;;5056211;28;20052;-65
2021/12/22 20:09:52;;;;;;;16.35;11.23;;;0.10;99.90;;;;;;5042513;28;21179;-66
2021/12/22 20:12:18;;;;;;;18.52;11.77;;;0.10;99.90;;;;;;5059191;28;20534;-65
2021/12/22 20:14:44;;;;;;;18.77;11.73;;;0.20;99.90;;;;;;5057369;28;20048;-65
2021/12/22 20:17:09;;;;;;;17.50;12.23;;;0.20;99.90;;;;;;5045656;28;20056;-65
2021/12/22 20:19:35;;;;;;;19.65;12.20;;;0.20;99.90;;;;;;5041952;28;20059;-66
2021/12/22 20:22:00;;;;;;;18.60;11.98;;;0.20;99.90;;;;;;5044579;28;20066;-66
2021/12/22 20:24:26;;;;;;;20.58;11.75;;;0.20;99.90;;;;;;5042143;28;20431;-67
2021/12/22 20:26:51;;;;;;;18.17;11.57;;;0.20;99.90;;;;;;5042115;28;20102;-67
2021/12/22 20:29:17;;;;;;;18.83;11.43;;;0.20;99.90;;;;;;5046125;28;20111;-66
2021/12/22 20:31:43;;;;;;;17.92;11.63;;;0.20;99.90;;;;;;5046841;28;20045;-67
2021/12/22 20:34:08;;;;;;;17.02;11.90;;;0.20;99.90;;;;;;5048075;28;20060;-66
2021/12/22 20:36:34;;;;;;;21.67;12.05;;;0.20;99.90;;;;;;5045615;28;20045;-67
2021/12/22 20:38:59;;;;;;;19.30;12.20;;;0.20;99.90;;;;;;5047088;28;20083;-67
2021/12/22 20:41:25;;;;;;;20.23;11.73;;;0.30;99.90;;;;;;5046186;28;20166;-67
2021/12/22 20:43:51;;;;;;;18.45;10.98;;;0.20;99.90;;;;;;5045148;28;20447;-67
2021/12/22 20:46:16;;;;;;;18.13;10.95;;;0.30;99.90;;;;;;5046588;28;20041;-67
2021/12/22 20:48:44;;;;;;;18.38;11.27;;;0.30;99.90;;;;;;5047132;28;20159;-67
2021/12/22 20:51:10;;;;;;;18.10;11.38;;;0.30;99.90;;;;;;5045480;28;20507;-67
2021/12/22 20:53:37;;;;;;;17.88;10.82;;;0.30;99.90;;;;;;5043978;28;20045;-67
2021/12/22 20:56:03;;;;;;;21.45;11.52;;;0.30;99.90;;;;;;5040611;28;20048;-68
2021/12/22 20:58:29;;;;;;;17.92;11.27;;;0.30;99.90;;;;;;5036354;28;20037;-66
2021/12/22 21:00:54;;;;;;;17.80;11.45;;;0.30;99.90;;;;;;5044825;28;20037;-66
2021/12/22 21:03:21;;;;;;;16.80;11.18;;;0.30;99.90;;;;;;5043980;28;20037;-65
2021/12/22 21:05:51;;;;;;;17.63;10.77;;;0.30;99.90;;;;;;5043427;28;21819;-65
2021/12/22 21:08:17;;;;;;;19.52;11.70;;;0.30;99.90;;;;;;5041002;28;20135;-67
2021/12/22 21:11:16;;;;;;;;;;;;;;;;;;;;;
2021/12/22 21:13:55;;;;;;;16.67;10.80;;;0.30;99.90;;;;;;5041542;28;20052;-67
2021/12/22 21:16:26;;;;;;;16.50;11.13;;;0.30;99.90;;;;;;5041809;28;20041;-68
2021/12/22 21:19:09;;;;;;;;;;;;;;;;;;;;;
2021/12/22 21:21:41;;;;;;;18.55;11.48;;;0.20;99.90;;;;;;5038347;28;20687;-67
2021/12/22 21:24:16;;;;;;;18.58;11.32;;;0.20;99.90;;;;;;5044341;28;20055;-67
2021/12/22 21:27:00;;;;;;;19.20;11.48;;;0.20;99.90;;;;;;5041898;28;20182;-68
2021/12/22 21:29:28;;;;;;;17.70;11.60;;;0.20;99.90;;;;;;5039017;28;20049;-70
2021/12/22 21:31:54;;;;;;;18.67;11.27;;;0.20;99.90;;;;;;5045985;28;20036;-68
2021/12/22 21:34:21;;;;;;;18.40;11.10;;;0.10;99.90;;;;;;5041315;28;20364;-66
2021/12/22 21:36:47;;;;;;;18.10;11.95;;;0.20;99.90;;;;;;5047056;28;20131;-65
2021/12/22 21:39:13;;;;;;;19.80;12.18;;;0.10;99.90;;;;;;5045484;28;20112;-67
2021/12/22 21:41:39;;;;;;;17.90;11.77;;;0.20;99.90;;;;;;5050405;28;20130;-68
2021/12/22 21:44:07;;;;;;;15.27;10.48;;;0.20;99.90;;;;;;5053631;28;20124;-67
2021/12/22 21:46:39;;;;;;;17.40;10.80;;;0.20;99.90;;;;;;5050813;28;20212;-68
2021/12/22 21:49:04;;;;;;;17.02;10.90;;;0.20;99.90;;;;;;5046308;28;20052;-66
2021/12/22 21:51:30;;;;;;;17.52;11.43;;;0.20;99.90;;;;;;5046629;28;20067;-66
2021/12/22 21:53:56;;;;;;;18.58;10.40;;;0.10;99.90;;;;;;5047780;28;20126;-66
2021/12/22 21:56:22;;;;;;;17.05;11.45;;;0.20;99.90;;;;;;5045690;28;20041;-66
2021/12/22 21:58:49;;;;;;;17.13;11.02;;;0.20;99.90;;;;;;5047157;28;20040;-66
2021/12/22 22:01:15;;;;;;;17.50;11.40;;;0.10;99.90;;;;;;5048166;28;20090;-68
2021/12/22 22:03:40;;;;;;;16.67;11.35;;;0.20;99.90;;;;;;5045722;28;20484;-67
2021/12/22 22:06:06;;;;;;;18.75;10.85;;;0.20;99.90;;;;;;5045823;28;20468;-68
2021/12/22 22:08:37;;;;;;;18.98;11.18;;;0.20;99.90;;;;;;5042845;28;20036;-68
2021/12/22 22:11:03;;;;;;;16.42;11.27;;;0.20;99.90;;;;;;5044185;28;20124;-65
2021/12/22 22:13:29;;;;;;;16.00;10.82;;;0.20;99.90;;;;;;5042897;28;20124;-67
2021/12/22 22:15:55;;;;;;;19.10;10.32;;;0.20;99.90;;;;;;5044337;28;20076;-65
2021/12/22 22:18:21;;;;;;;19.50;11.35;;;0.20;99.90;;;;;;5046286;28;20041;-66
2021/12/22 22:20:46;;;;;;;20.58;11.60;;;0.20;99.90;;;;;;5046450;28;20041;-68
2021/12/22 22:23:12;;;;;;;17.88;11.23;;;0.30;99.90;;;;;;5039733;28;20212;-66
2021/12/22 22:25:38;;;;;;;17.48;11.48;;;0.30;99.90;;;;;;5049282;28;20044;-65
2021/12/22 22:28:04;;;;;;;18.38;10.90;;;0.30;99.90;;;;;;5045226;28;20757;-65
2021/12/22 22:30:31;;;;;;;18.20;11.23;;;0.30;99.90;;;;;;5046149;28;20166;-66
2021/12/22 22:32:59;;;;;;;17.63;10.63;;;0.20;99.90;;;;;;5052673;28;20075;-68
2021/12/22 22:35:25;;;;;;;17.58;11.80;;;0.20;99.90;;;;;;5053572;28;20484;-66
2021/12/22 22:37:52;;;;;;;19.85;12.07;;;0.20;99.90;;;;;;5043656;28;20040;-65
2021/12/22 22:40:19;;;;;;;17.75;11.32;;;0.20;99.90;;;;;;5048545;28;20045;-68
2021/12/22 22:42:45;;;;;;;18.50;12.02;;;0.20;99.90;;;;;;5046951;28;20048;-66
2021/12/22 22:45:10;;;;;;;18.80;11.63;;;0.30;99.90;;;;;;5048058;28;20725;-66
2021/12/22 22:47:37;;;;;;;18.55;12.27;;;0.20;99.90;;;;;;5048543;28;20048;-66
2021/12/22 22:50:04;;;;;;;20.90;10.98;;;0.20;99.90;;;;;;5049045;28;20385;-66
2021/12/22 22:52:34;;;;;;;19.10;11.85;;;0.20;99.90;;;;;;5047548;28;20055;-66
2021/12/22 22:55:00;;;;;;;16.35;10.57;;;0.20;99.90;;;;;;5046478;28;20068;-66
2021/12/22 22:57:25;;;;;;;19.15;11.40;;;0.30;99.90;;;;;;5047467;28;20045;-65
2021/12/22 22:59:51;;;;;;;17.13;11.40;;;0.20;99.90;;;;;;5055345;28;20091;-65
2021/12/22 23:02:16;;;;;;;18.17;10.75;;;0.30;99.90;;;;;;5045816;28;20052;-66
2021/12/22 23:04:42;;;;;;;17.63;11.20;;;0.30;99.90;;;;;;5041913;28;20055;-70
2021/12/22 23:07:07;;;;;;;17.00;10.93;;;0.30;99.90;;;;;;5045099;28;20045;-67
2021/12/22 23:09:33;;;;;;;17.15;10.85;;;0.30;99.90;;;;;;5047238;28;20037;-66
2021/12/22 23:11:59;;;;;;;17.17;11.38;;;0.30;99.90;;;;;;5050310;28;20037;-65
2021/12/22 23:14:24;;;;;;;17.67;11.15;;;0.30;99.90;;;;;;5044194;28;20041;-67
2021/12/22 23:16:54;;;;;;;16.90;11.18;;;0.30;99.90;;;;;;5051815;28;20436;-66
2021/12/22 23:19:20;;;;;;;17.40;10.63;;;0.30;99.90;;;;;;5047016;28;20055;-66
2021/12/22 23:21:45;;;;;;;16.75;10.68;;;0.40;99.90;;;;;;5046107;28;20037;-65
2021/12/22 23:24:12;;;;;;;16.05;10.73;;;0.30;99.90;;;;;;5049386;28;20063;-66
2021/12/22 23:26:40;;;;;;;18.10;11.00;;;0.40;99.90;;;;;;5047210;28;20041;-66
2021/12/22 23:29:06;;;;;;;16.58;10.52;;;0.40;99.90;;;;;;5043034;28;20053;-66
2021/12/22 23:31:32;;;;;;;17.65;10.63;;;0.30;99.90;;;;;;5052365;28;20052;-66
2021/12/22 23:33:58;;;;;;;18.70;11.43;;;0.40;99.90;;;;;;5045497;28;20037;-65
2021/12/22 23:36:30;;;;;;;16.70;10.52;;;0.40;99.90;;;;;;5047471;28;20075;-66
2021/12/22 23:39:21;;;;;;;18.42;11.25;;;0.40;99.90;;;;;;5048522;28;20045;-66
2021/12/22 23:42:09;;;;;;;15.52;10.80;;;0.30;99.90;;;;;;5046367;28;20567;-66
2021/12/22 23:45:00;;;;;;;20.02;11.00;;;0.40;99.90;;;;;;5041776;28;20029;-66
2021/12/22 23:49:02;;;;;;;16.45;10.30;;;0.40;99.90;;;;;;5044018;28;20514;-65
2021/12/22 23:50:18;;;;;;;20.15;10.35;;;0.40;99.90;;;;;;5040331;28;20493;-66
2021/12/22 23:52:44;;;;;;;16.30;10.68;;;0.40;99.90;;;;;;5028873;28;20045;-66
2021/12/22 23:55:10;;;;;;;16.50;10.85;;;0.40;99.90;;;;;;5048980;28;20041;-66
2021/12/22 23:57:36;;;;;;;15.48;10.00;;;0.40;99.90;;;;;;5053487;28;20051;-66
